Time;durP1;ratioP1;P1;durP2;ratioP2;P2;SDS_P1;SDS_P2;PMS_P1;PMS_P2;Temp;Humidity;BMP_temperature;BMP_pressure;BME280_temperature;BME280_humidity;BME280_pressure;Samples;Min_cycle;Max_cycle;Signal;HPM_P1;HPM_P2
2023/06/21 00:00:15;;;;;;;11.93;6.75;;;21.60;99.90;;;;;;5071870;28;20051;-77
2023/06/21 00:02:44;;;;;;;12.15;7.10;;;21.50;99.90;;;;;;5069568;28;20028;-77
2023/06/21 00:05:11;;;;;;;11.50;5.97;;;21.50;99.90;;;;;;5075807;28;20024;-77
2023/06/21 00:07:40;;;;;;;19.48;6.88;;;21.40;99.90;;;;;;5070758;28;20033;-77
2023/06/21 00:10:09;;;;;;;11.88;5.68;;;21.40;99.80;;;;;;5069927;28;20031;-77
2023/06/21 00:12:35;;;;;;;9.48;6.18;;;21.50;99.60;;;;;;5068800;28;20043;-77
2023/06/21 00:15:02;;;;;;;7.80;6.13;;;21.40;99.80;;;;;;5078240;28;20048;-77
2023/06/21 00:17:28;;;;;;;8.93;5.10;;;21.40;99.90;;;;;;5072668;28;20063;-77
2023/06/21 00:19:55;;;;;;;9.63;5.47;;;21.20;99.90;;;;;;5069544;28;20060;-78
2023/06/21 00:22:22;;;;;;;13.82;6.18;;;21.30;99.80;;;;;;5080855;28;20493;-77
2023/06/21 00:24:48;;;;;;;12.00;6.63;;;21.30;99.80;;;;;;5079021;28;20387;-76
2023/06/21 00:27:15;;;;;;;10.35;6.32;;;21.50;99.60;;;;;;5077655;28;20031;-77
2023/06/21 00:29:40;;;;;;;12.93;6.47;;;21.70;99.30;;;;;;5068859;28;20526;-77
2023/06/21 00:32:06;;;;;;;10.45;6.53;;;21.60;99.60;;;;;;5080735;28;20107;-77
2023/06/21 00:34:32;;;;;;;13.57;6.85;;;21.40;99.90;;;;;;5069741;28;20036;-77
2023/06/21 00:36:58;;;;;;;11.90;6.43;;;21.40;99.90;;;;;;5080658;28;20024;-77
2023/06/21 00:39:23;;;;;;;11.52;7.10;;;21.40;99.90;;;;;;5085616;28;20103;-76
2023/06/21 00:41:49;;;;;;;10.70;6.28;;;21.40;99.90;;;;;;5069596;28;20032;-77
2023/06/21 00:44:15;;;;;;;14.50;6.93;;;21.40;99.90;;;;;;5078443;28;20086;-77
2023/06/21 00:46:40;;;;;;;10.45;6.68;;;21.50;99.90;;;;;;5069457;28;20036;-77
2023/06/21 00:49:06;;;;;;;12.35;6.38;;;21.30;99.90;;;;;;5069275;28;20068;-77
2023/06/21 00:51:32;;;;;;;10.60;6.72;;;21.50;99.90;;;;;;5069194;28;20110;-77
2023/06/21 00:53:59;;;;;;;9.73;6.43;;;21.50;99.90;;;;;;5077281;28;20028;-77
2023/06/21 00:56:25;;;;;;;9.98;7.25;;;21.50;99.90;;;;;;5082939;28;20076;-77
2023/06/21 00:58:51;;;;;;;15.68;7.65;;;21.70;99.90;;;;;;5076818;28;20109;-77
2023/06/21 01:01:17;;;;;;;19.42;7.22;;;21.80;99.90;;;;;;5075575;28;20430;-77
2023/06/21 01:03:42;;;;;;;10.23;6.57;;;21.80;99.90;;;;;;5086669;28;20065;-77
2023/06/21 01:06:08;;;;;;;8.00;5.90;;;21.30;99.90;;;;;;5067948;28;20492;-76
2023/06/21 01:08:58;;;;;;;11.25;6.90;;;21.20;99.90;;;;;;5075310;28;20386;-77
2023/06/21 01:11:28;;;;;;;8.93;5.75;;;21.40;99.70;;;;;;5068969;28;20071;-77
2023/06/21 01:14:18;;;;;;;10.45;6.95;;;21.40;99.50;;;;;;5068875;28;20032;-77
2023/06/21 01:16:48;;;;;;;12.27;6.80;;;21.80;99.80;;;;;;5076012;28;20024;-76
2023/06/21 01:19:41;;;;;;;10.27;6.82;;;21.80;99.40;;;;;;5077239;28;20420;-77
2023/06/21 01:22:34;;;;;;;14.15;6.60;;;21.80;99.10;;;;;;5075129;28;20036;-77
2023/06/21 01:25:45;;;;;;;10.30;7.22;;;21.80;99.20;;;;;;5067006;28;20038;-77
2023/06/21 01:28:49;;;;;;;12.90;6.30;;;21.70;99.70;;;;;;5067744;28;20025;-77
2023/06/21 01:31:16;;;;;;;16.42;6.57;;;21.50;99.70;;;;;;5074161;28;20024;-77
2023/06/21 01:33:42;;;;;;;11.30;6.55;;;21.40;99.90;;;;;;5077213;28;20095;-77
2023/06/21 01:36:12;;;;;;;10.35;6.85;;;21.40;99.90;;;;;;5079220;28;20023;-76
2023/06/21 01:38:37;;;;;;;11.80;7.32;;;21.40;99.90;;;;;;5072883;28;20045;-77
2023/06/21 01:41:03;;;;;;;11.10;7.10;;;21.30;99.90;;;;;;5068150;28;20032;-77
2023/06/21 01:43:30;;;;;;;11.90;6.47;;;21.30;99.90;;;;;;5068513;28;20067;-77
2023/06/21 01:45:59;;;;;;;8.88;6.13;;;21.30;99.90;;;;;;5083078;28;20032;-77
2023/06/21 01:48:25;;;;;;;12.65;6.55;;;21.20;99.90;;;;;;5073616;28;20394;-77
2023/06/21 01:50:52;;;;;;;11.25;5.57;;;21.20;99.90;;;;;;5081378;28;20500;-77
2023/06/21 01:53:19;;;;;;;10.32;5.88;;;21.00;99.90;;;;;;5070946;28;20059;-77
2023/06/21 01:55:48;;;;;;;10.32;6.13;;;20.80;99.90;;;;;;5070212;28;20040;-77
2023/06/21 01:58:15;;;;;;;12.00;6.40;;;20.80;99.90;;;;;;5071179;28;20020;-76
2023/06/21 02:00:42;;;;;;;8.45;6.45;;;20.90;99.90;;;;;;5075096;28;20032;-77
2023/06/21 02:03:13;;;;;;;12.40;7.00;;;20.90;99.90;;;;;;5083127;28;20032;-77
2023/06/21 02:05:41;;;;;;;11.88;6.10;;;20.90;99.90;;;;;;5083544;28;20032;-77
2023/06/21 02:08:15;;;;;;;11.60;6.43;;;21.00;99.90;;;;;;5081390;28;20032;-77
2023/06/21 02:10:45;;;;;;;8.98;6.10;;;21.00;99.90;;;;;;5081684;28;20101;-77
2023/06/21 02:13:12;;;;;;;11.25;6.97;;;21.10;99.90;;;;;;5078375;28;20075;-77
2023/06/21 02:15:40;;;;;;;10.90;7.28;;;21.10;99.90;;;;;;5084989;28;20077;-76
2023/06/21 02:18:07;;;;;;;12.35;6.13;;;21.20;99.90;;;;;;5088606;28;20024;-77
2023/06/21 02:20:32;;;;;;;11.63;5.82;;;21.20;99.70;;;;;;5086663;28;20444;-77
2023/06/21 02:22:58;;;;;;;7.55;5.40;;;21.10;99.40;;;;;;5081594;28;20118;-77
2023/06/21 02:25:24;;;;;;;11.80;5.63;;;21.10;99.30;;;;;;5082039;28;20032;-77
2023/06/21 02:27:50;;;;;;;10.63;5.28;;;20.90;99.70;;;;;;5081501;28;20031;-77
2023/06/21 02:30:15;;;;;;;8.88;5.65;;;20.70;99.90;;;;;;5087365;28;20032;-77
2023/06/21 02:32:41;;;;;;;8.77;6.30;;;20.60;99.90;;;;;;5086711;28;20108;-77
2023/06/21 02:35:09;;;;;;;10.40;6.07;;;20.70;99.90;;;;;;5084633;28;20028;-77
2023/06/21 02:37:35;;;;;;;8.95;5.45;;;20.70;99.90;;;;;;5085043;28;20025;-77
2023/06/21 02:40:09;;;;;;;9.05;5.82;;;20.80;99.90;;;;;;5081396;28;20027;-77
2023/06/21 02:42:36;;;;;;;8.63;5.32;;;20.80;99.90;;;;;;5082825;28;20020;-77
2023/06/21 02:45:01;;;;;;;12.05;5.97;;;20.40;99.90;;;;;;5082326;28;20043;-77
2023/06/21 02:47:27;;;;;;;8.25;5.00;;;20.30;99.90;;;;;;5086953;28;20111;-77
2023/06/21 02:49:53;;;;;;;10.00;5.78;;;20.30;99.90;;;;;;5085206;28;20036;-77
2023/06/21 02:52:18;;;;;;;10.77;5.50;;;20.30;99.90;;;;;;5088112;28;20031;-76
2023/06/21 02:54:44;;;;;;;7.82;5.60;;;20.20;99.90;;;;;;5084588;28;20111;-76
2023/06/21 02:57:10;;;;;;;10.63;6.00;;;20.30;99.90;;;;;;5084083;28;20063;-76
2023/06/21 02:59:36;;;;;;;11.02;6.20;;;20.30;99.90;;;;;;5085876;28;20486;-77
2023/06/21 03:02:02;;;;;;;8.98;5.72;;;20.40;99.90;;;;;;5079518;28;20113;-76
2023/06/21 03:04:28;;;;;;;11.60;6.20;;;20.40;99.90;;;;;;5072348;28;20485;-76
2023/06/21 03:06:54;;;;;;;10.23;7.10;;;20.50;99.90;;;;;;5077160;28;20051;-75
2023/06/21 03:09:20;;;;;;;13.65;6.63;;;20.70;99.90;;;;;;5076464;28;20028;-76
2023/06/21 03:11:47;;;;;;;10.10;5.78;;;20.60;99.90;;;;;;5079774;28;20028;-76
2023/06/21 03:14:13;;;;;;;7.88;5.22;;;20.30;99.90;;;;;;5073314;28;20025;-76
2023/06/21 03:16:40;;;;;;;12.32;6.40;;;20.30;99.90;;;;;;5075529;28;20036;-76
2023/06/21 03:19:08;;;;;;;11.23;6.32;;;20.20;99.90;;;;;;5074986;28;20527;-76
2023/06/21 03:21:34;;;;;;;8.80;6.13;;;20.30;99.90;;;;;;5072846;28;20037;-76
2023/06/21 03:24:01;;;;;;;12.13;6.85;;;20.40;99.90;;;;;;5076870;28;20131;-76
2023/06/21 03:26:26;;;;;;;12.73;6.65;;;20.50;99.90;;;;;;5081228;28;20028;-76
2023/06/21 03:28:54;;;;;;;13.27;6.63;;;20.60;99.90;;;;;;5079307;28;20039;-76
2023/06/21 03:31:20;;;;;;;11.60;6.38;;;20.50;99.90;;;;;;5081464;28;20028;-75
2023/06/21 03:33:46;;;;;;;12.13;6.57;;;20.40;99.90;;;;;;5080827;28;20162;-76
2023/06/21 03:36:12;;;;;;;17.30;6.82;;;20.30;99.90;;;;;;5080381;28;20020;-75
2023/06/21 03:38:38;;;;;;;9.70;6.50;;;20.60;99.90;;;;;;5080563;28;20034;-76
2023/06/21 03:41:03;;;;;;;12.77;6.28;;;20.40;99.90;;;;;;5074820;28;20130;-76
2023/06/21 03:43:29;;;;;;;11.13;5.93;;;20.10;99.90;;;;;;5080819;28;20032;-76
2023/06/21 03:45:55;;;;;;;10.63;5.93;;;20.00;99.90;;;;;;5076142;28;20031;-76
2023/06/21 03:48:20;;;;;;;9.82;5.88;;;20.10;99.90;;;;;;5076038;28;20397;-76
2023/06/21 03:50:46;;;;;;;10.45;6.00;;;19.90;99.90;;;;;;5079702;28;20028;-76
2023/06/21 03:53:13;;;;;;;9.32;6.22;;;20.00;99.90;;;;;;5081134;28;20036;-75
2023/06/21 03:55:38;;;;;;;10.90;6.93;;;19.90;99.90;;;;;;5075122;28;20346;-76
2023/06/21 03:58:04;;;;;;;14.20;6.65;;;20.10;99.90;;;;;;5070413;28;20797;-75
2023/06/21 04:00:30;;;;;;;12.13;6.85;;;20.30;99.90;;;;;;5075286;28;20405;-76
2023/06/21 04:02:56;;;;;;;9.73;6.35;;;20.40;99.90;;;;;;5072964;28;20037;-75
2023/06/21 04:05:21;;;;;;;11.43;7.00;;;20.30;99.90;;;;;;5072510;28;20470;-76
2023/06/21 04:07:47;;;;;;;11.90;6.68;;;20.40;99.90;;;;;;5072016;28;20028;-76
2023/06/21 04:10:13;;;;;;;14.63;6.93;;;20.30;99.90;;;;;;5073329;28;20054;-75
2023/06/21 04:12:39;;;;;;;9.93;6.22;;;20.30;99.90;;;;;;5071726;28;20024;-75
2023/06/21 04:15:05;;;;;;;9.38;6.57;;;20.20;99.90;;;;;;5073488;28;20108;-76
2023/06/21 04:17:31;;;;;;;12.93;7.57;;;20.10;99.90;;;;;;5074039;28;20160;-76
2023/06/21 04:19:57;;;;;;;12.45;7.13;;;20.10;99.90;;;;;;5071559;28;20749;-75
2023/06/21 04:22:23;;;;;;;11.70;7.00;;;20.20;99.90;;;;;;5076003;28;20033;-75
2023/06/21 04:24:49;;;;;;;12.20;7.22;;;20.20;99.90;;;;;;5071230;28;20344;-75
2023/06/21 04:27:15;;;;;;;10.23;6.35;;;20.20;99.90;;;;;;5072060;28;20030;-75
2023/06/21 04:29:41;;;;;;;17.30;7.57;;;20.30;99.90;;;;;;5072044;28;20529;-76
2023/06/21 04:32:10;;;;;;;12.43;7.15;;;20.30;99.90;;;;;;5070998;28;20423;-75
2023/06/21 04:34:36;;;;;;;16.25;6.82;;;20.40;99.90;;;;;;5075008;28;20036;-75
2023/06/21 04:37:05;;;;;;;10.93;7.18;;;20.30;99.90;;;;;;5076039;28;20056;-75
2023/06/21 04:39:32;;;;;;;8.63;6.63;;;20.40;99.90;;;;;;5074996;28;20024;-75
2023/06/21 04:41:58;;;;;;;11.35;7.20;;;20.30;99.90;;;;;;5071309;28;20461;-76
2023/06/21 04:44:27;;;;;;;11.13;7.15;;;20.30;99.90;;;;;;5075656;28;20032;-75
2023/06/21 04:46:53;;;;;;;13.15;7.72;;;20.40;99.90;;;;;;5073329;28;20040;-76
2023/06/21 04:49:19;;;;;;;10.98;6.88;;;20.60;99.90;;;;;;5069848;28;20032;-75
2023/06/21 04:51:45;;;;;;;9.95;7.75;;;20.70;99.90;;;;;;5076516;28;20028;-75
2023/06/21 04:54:11;;;;;;;10.23;7.53;;;20.60;99.90;;;;;;5070990;28;20024;-76
2023/06/21 04:56:37;;;;;;;12.88;8.25;;;20.70;99.90;;;;;;5073487;28;20047;-75
2023/06/21 04:59:03;;;;;;;14.60;9.32;;;20.70;99.90;;;;;;5070216;28;20956;-75
2023/06/21 05:01:30;;;;;;;15.23;10.02;;;20.70;99.90;;;;;;5071993;28;20033;-76
2023/06/21 05:03:56;;;;;;;14.55;9.25;;;20.80;99.90;;;;;;5069703;28;20048;-75
2023/06/21 05:06:25;;;;;;;11.15;8.80;;;20.60;99.90;;;;;;5072288;28;20112;-76
2023/06/21 05:08:51;;;;;;;11.38;8.63;;;20.70;99.90;;;;;;5075160;28;20020;-75
2023/06/21 05:11:20;;;;;;;11.95;8.13;;;20.60;99.90;;;;;;5077282;28;20172;-75
2023/06/21 05:13:46;;;;;;;12.57;8.65;;;20.80;99.90;;;;;;5072610;28;20033;-75
2023/06/21 05:16:11;;;;;;;11.57;8.07;;;20.80;99.90;;;;;;5073758;28;20105;-75
2023/06/21 05:18:38;;;;;;;12.10;8.65;;;20.80;99.90;;;;;;5070715;28;20036;-76
2023/06/21 05:21:04;;;;;;;12.57;8.35;;;21.00;99.90;;;;;;5068211;28;20035;-75
2023/06/21 05:23:30;;;;;;;14.45;8.50;;;21.10;99.90;;;;;;5069332;28;20081;-76
2023/06/21 05:25:55;;;;;;;14.55;8.25;;;21.30;99.90;;;;;;5083746;28;20149;-73
2023/06/21 05:28:21;;;;;;;11.60;9.05;;;21.30;99.90;;;;;;5077840;28;20035;-72
2023/06/21 05:30:47;;;;;;;14.18;9.20;;;21.30;99.90;;;;;;5071214;28;20024;-75
2023/06/21 05:33:14;;;;;;;18.45;9.15;;;21.40;99.90;;;;;;5070718;28;20028;-76
2023/06/21 05:35:40;;;;;;;12.18;8.63;;;21.50;99.90;;;;;;5075308;28;20035;-77
2023/06/21 05:38:06;;;;;;;11.85;8.65;;;21.40;99.90;;;;;;5073709;28;20028;-75
2023/06/21 05:40:32;;;;;;;11.80;8.63;;;21.40;99.90;;;;;;5075621;28;20480;-73
2023/06/21 05:43:01;;;;;;;15.98;9.00;;;21.40;99.90;;;;;;5077637;28;20029;-74
2023/06/21 05:45:28;;;;;;;12.30;9.00;;;21.40;99.90;;;;;;5076605;28;20035;-74
2023/06/21 05:47:54;;;;;;;12.13;9.38;;;21.40;99.90;;;;;;5076485;28;20264;-75
2023/06/21 05:50:20;;;;;;;14.15;10.57;;;21.40;99.90;;;;;;5070847;28;20136;-75
2023/06/21 05:52:45;;;;;;;13.68;8.88;;;21.30;99.90;;;;;;5078778;28;20364;-75
2023/06/21 05:55:11;;;;;;;28.25;10.32;;;21.40;99.90;;;;;;5073512;28;20020;-74
2023/06/21 05:57:37;;;;;;;18.40;10.05;;;21.30;99.90;;;;;;5074644;28;20059;-75
2023/06/21 06:00:05;;;;;;;16.00;9.30;;;21.50;99.90;;;;;;5079483;28;20035;-75
2023/06/21 06:02:31;;;;;;;12.93;8.85;;;21.50;99.90;;;;;;5073900;28;20722;-75
2023/06/21 06:04:57;;;;;;;15.57;9.82;;;21.50;99.90;;;;;;5080778;28;20158;-75
2023/06/21 06:07:23;;;;;;;15.30;8.85;;;21.30;99.90;;;;;;5077446;28;20471;-74
2023/06/21 06:09:50;;;;;;;16.83;9.07;;;21.50;99.90;;;;;;5078248;28;20040;-75
2023/06/21 06:12:17;;;;;;;16.88;10.40;;;21.80;99.90;;;;;;5074277;28;20047;-74
2023/06/21 06:14:43;;;;;;;14.05;10.27;;;22.00;99.90;;;;;;5076998;28;20066;-76
2023/06/21 06:17:09;;;;;;;12.25;10.27;;;22.40;99.90;;;;;;5076053;28;20102;-75
2023/06/21 06:19:34;;;;;;;17.85;10.07;;;22.50;99.90;;;;;;5076118;28;20587;-75
2023/06/21 06:22:00;;;;;;;16.35;9.80;;;22.60;99.90;;;;;;5077505;28;20465;-75
2023/06/21 06:24:27;;;;;;;16.50;11.18;;;22.50;99.90;;;;;;5075000;28;20089;-75
2023/06/21 06:26:53;;;;;;;13.52;10.60;;;22.50;99.90;;;;;;5078242;28;20608;-74
2023/06/21 06:29:19;;;;;;;14.35;10.60;;;22.50;99.90;;;;;;5077225;28;20032;-75
2023/06/21 06:31:45;;;;;;;17.17;10.68;;;22.50;99.90;;;;;;5074064;28;20707;-75
2023/06/21 06:34:10;;;;;;;14.88;11.23;;;22.50;99.90;;;;;;5079487;28;20036;-76
2023/06/21 06:36:36;;;;;;;23.15;11.75;;;22.50;99.90;;;;;;5073371;28;20530;-76
2023/06/21 06:39:02;;;;;;;15.02;11.60;;;22.60;99.90;;;;;;5076599;28;20040;-75
2023/06/21 06:41:28;;;;;;;33.03;11.98;;;22.50;99.90;;;;;;5075541;28;20135;-75
2023/06/21 06:43:53;;;;;;;17.70;10.20;;;22.50;99.90;;;;;;5075427;28;20025;-76
2023/06/21 06:46:19;;;;;;;16.10;11.50;;;22.70;99.90;;;;;;5070495;28;20038;-76
2023/06/21 06:48:45;;;;;;;19.75;11.48;;;22.80;99.90;;;;;;5070403;28;20041;-75
2023/06/21 06:51:10;;;;;;;22.90;10.13;;;22.70;99.90;;;;;;5075590;28;20021;-75
2023/06/21 06:53:36;;;;;;;18.35;11.35;;;22.80;99.90;;;;;;5075928;28;20539;-75
2023/06/21 06:56:02;;;;;;;17.52;11.18;;;22.80;99.90;;;;;;5072363;28;20710;-76
2023/06/21 06:58:28;;;;;;;17.27;10.60;;;22.80;99.90;;;;;;5074145;28;20028;-76
2023/06/21 07:00:54;;;;;;;15.25;11.25;;;23.00;99.90;;;;;;5075831;28;20039;-76
2023/06/21 07:03:20;;;;;;;13.82;10.48;;;23.20;99.90;;;;;;5071962;28;20021;-75
2023/06/21 07:05:47;;;;;;;14.15;10.13;;;23.40;99.90;;;;;;5076582;28;20487;-77
2023/06/21 07:08:12;;;;;;;14.77;10.52;;;23.70;99.90;;;;;;5079101;28;20028;-76
2023/06/21 07:10:39;;;;;;;17.73;10.52;;;23.90;99.90;;;;;;5080964;28;20047;-76
2023/06/21 07:13:06;;;;;;;20.75;10.57;;;24.10;99.90;;;;;;5079200;28;20619;-76
2023/06/21 07:15:32;;;;;;;14.63;10.27;;;24.30;99.90;;;;;;5080845;28;20035;-76
2023/06/21 07:17:58;;;;;;;22.00;11.73;;;24.60;99.90;;;;;;5080028;28;20541;-78
2023/06/21 07:20:23;;;;;;;14.85;11.02;;;24.80;99.90;;;;;;5081947;28;20040;-77
2023/06/21 07:22:49;;;;;;;18.77;11.00;;;24.90;99.90;;;;;;5081965;28;20030;-77
2023/06/21 07:25:15;;;;;;;20.67;10.15;;;24.90;99.90;;;;;;5075438;28;20028;-77
2023/06/21 07:27:41;;;;;;;17.27;10.50;;;24.90;99.90;;;;;;5073663;28;20448;-77
2023/06/21 07:30:08;;;;;;;15.15;11.00;;;25.00;99.90;;;;;;5076530;28;20034;-78
2023/06/21 07:32:33;;;;;;;16.58;10.75;;;25.40;99.90;;;;;;5073190;28;20063;-77
2023/06/21 07:35:02;;;;;;;16.88;11.05;;;25.80;98.90;;;;;;5072401;28;20075;-77
2023/06/21 07:37:29;;;;;;;14.95;10.90;;;26.50;98.60;;;;;;5077392;28;20030;-77
2023/06/21 07:39:55;;;;;;;18.75;11.30;;;27.10;97.80;;;;;;5070612;28;20127;-78
2023/06/21 07:42:22;;;;;;;16.10;10.55;;;27.70;97.20;;;;;;5076494;28;20081;-77
2023/06/21 07:44:50;;;;;;;16.58;10.32;;;27.60;96.60;;;;;;5075130;28;20024;-77
2023/06/21 07:47:16;;;;;;;16.00;9.77;;;27.20;97.80;;;;;;5076308;28;20097;-77
2023/06/21 07:49:42;;;;;;;17.70;9.90;;;27.50;96.40;;;;;;5076070;28;20043;-77
2023/06/21 07:52:08;;;;;;;15.30;10.32;;;27.60;95.90;;;;;;5076495;28;20023;-78
2023/06/21 07:54:34;;;;;;;15.70;10.95;;;27.50;96.60;;;;;;5076265;28;20039;-78
2023/06/21 07:56:59;;;;;;;17.05;10.05;;;27.30;96.50;;;;;;5076752;28;20040;-77
2023/06/21 07:59:25;;;;;;;17.20;10.25;;;27.20;96.70;;;;;;5074472;28;20123;-77
2023/06/21 08:01:50;;;;;;;14.32;9.40;;;26.90;96.30;;;;;;5075674;28;20498;-77
2023/06/21 08:04:16;;;;;;;16.70;10.13;;;26.90;97.00;;;;;;5077596;28;20027;-79
2023/06/21 08:06:42;;;;;;;26.60;11.90;;;27.00;97.50;;;;;;5075968;28;20021;-77
2023/06/21 08:09:07;;;;;;;16.83;10.77;;;26.90;97.40;;;;;;5076861;28;20032;-77
2023/06/21 08:11:33;;;;;;;13.15;9.93;;;26.60;97.60;;;;;;5077478;28;20032;-77
2023/06/21 08:13:59;;;;;;;16.90;11.40;;;26.80;96.90;;;;;;5077830;28;20032;-77
2023/06/21 08:16:24;;;;;;;16.15;11.32;;;27.00;96.50;;;;;;5080487;28;20030;-77
2023/06/21 08:18:50;;;;;;;15.85;11.27;;;27.10;96.60;;;;;;5072515;28;20028;-77
2023/06/21 08:21:16;;;;;;;16.80;9.65;;;27.10;97.20;;;;;;5076103;28;20477;-77
2023/06/21 08:23:41;;;;;;;26.15;10.95;;;27.10;96.20;;;;;;5072701;28;20036;-77
2023/06/21 08:26:07;;;;;;;30.80;11.50;;;27.00;96.80;;;;;;5075921;28;20025;-75
2023/06/21 08:28:33;;;;;;;19.77;11.75;;;27.10;96.60;;;;;;5075322;28;20038;-77
2023/06/21 08:30:58;;;;;;;17.50;10.85;;;27.30;96.40;;;;;;5075268;28;20028;-76
2023/06/21 08:33:24;;;;;;;25.02;12.02;;;27.30;96.90;;;;;;5073575;28;20513;-78
2023/06/21 08:35:49;;;;;;;21.30;12.40;;;27.40;96.40;;;;;;5073386;28;20501;-77
2023/06/21 08:38:15;;;;;;;14.73;11.02;;;27.50;96.70;;;;;;5074614;28;20016;-77
2023/06/21 08:40:45;;;;;;;18.15;11.15;;;27.70;97.10;;;;;;5076200;28;20393;-77
2023/06/21 08:43:11;;;;;;;16.90;11.40;;;27.80;96.60;;;;;;5067423;28;20516;-77
2023/06/21 08:45:37;;;;;;;14.38;11.45;;;27.60;96.30;;;;;;5067167;28;20037;-77
2023/06/21 08:48:05;;;;;;;19.42;10.80;;;27.60;96.70;;;;;;5075782;28;20135;-77
2023/06/21 08:50:34;;;;;;;13.60;10.95;;;27.60;96.20;;;;;;5076208;28;20028;-77
2023/06/21 08:53:02;;;;;;;21.60;11.60;;;27.70;96.20;;;;;;5071490;28;20024;-77
2023/06/21 08:55:31;;;;;;;15.45;10.27;;;27.70;95.90;;;;;;5075128;28;20463;-77
2023/06/21 08:58:00;;;;;;;18.23;10.73;;;27.90;96.00;;;;;;5071885;28;20165;-77
2023/06/21 09:00:33;;;;;;;16.67;10.82;;;27.60;95.60;;;;;;5067058;28;20040;-77
2023/06/21 09:03:10;;;;;;;15.63;11.35;;;27.80;95.30;;;;;;5072189;28;20111;-77
2023/06/21 09:05:59;;;;;;;14.15;9.57;;;28.00;94.90;;;;;;5074032;28;20028;-77
2023/06/21 09:08:25;;;;;;;16.23;10.57;;;27.70;95.30;;;;;;5073909;28;20036;-77
2023/06/21 09:10:52;;;;;;;14.00;9.43;;;27.70;95.10;;;;;;5068293;28;20526;-77
2023/06/21 09:13:24;;;;;;;19.83;10.48;;;28.10;95.60;;;;;;5071012;28;20044;-77
2023/06/21 09:15:51;;;;;;;15.05;9.93;;;28.10;95.40;;;;;;5070649;28;20123;-76
2023/06/21 09:18:18;;;;;;;15.38;10.23;;;28.40;95.30;;;;;;5073055;28;20103;-76
2023/06/21 09:20:49;;;;;;;30.55;11.55;;;28.30;95.40;;;;;;5069993;28;20697;-77
2023/06/21 09:23:15;;;;;;;17.85;11.13;;;28.80;95.90;;;;;;5074825;28;20039;-77
2023/06/21 09:25:42;;;;;;;16.75;10.30;;;28.80;95.00;;;;;;5080377;28;20039;-77
2023/06/21 09:28:08;;;;;;;17.33;9.88;;;29.00;95.90;;;;;;5070562;28;20084;-76
2023/06/21 09:30:34;;;;;;;14.45;10.05;;;29.20;95.00;;;;;;5072158;28;20032;-76
2023/06/21 09:32:59;;;;;;;16.15;10.90;;;29.00;94.30;;;;;;5067597;28;20031;-77
2023/06/21 09:35:25;;;;;;;36.45;11.50;;;29.30;95.30;;;;;;5071196;28;20032;-77
2023/06/21 09:37:51;;;;;;;13.70;9.77;;;29.50;95.10;;;;;;5072010;28;20029;-77
2023/06/21 09:40:16;;;;;;;15.82;9.57;;;29.40;94.40;;;;;;5074784;28;20032;-77
2023/06/21 09:42:45;;;;;;;16.60;9.80;;;29.20;94.30;;;;;;5071673;28;20487;-77
2023/06/21 09:45:29;;;;;;;17.85;10.63;;;29.00;93.80;;;;;;5067196;28;20020;-77
2023/06/21 09:47:54;;;;;;;17.60;9.50;;;29.20;94.60;;;;;;5069209;28;20032;-77
2023/06/21 09:50:20;;;;;;;14.32;8.63;;;29.70;94.30;;;;;;5075043;28;20036;-76
2023/06/21 09:52:45;;;;;;;16.23;9.77;;;29.90;93.10;;;;;;5074662;28;20039;-76
2023/06/21 09:55:15;;;;;;;19.75;10.10;;;29.60;93.40;;;;;;5076480;28;20027;-77
2023/06/21 09:57:41;;;;;;;17.70;9.23;;;29.70;94.10;;;;;;5071297;28;20055;-77
2023/06/21 10:00:08;;;;;;;15.90;9.85;;;30.40;93.40;;;;;;5073307;28;20547;-77
2023/06/21 10:02:40;;;;;;;16.20;9.52;;;30.40;93.10;;;;;;5073515;28;20040;-77
2023/06/21 10:05:19;;;;;;;15.67;10.00;;;30.50;93.50;;;;;;5075060;28;20047;-77
2023/06/21 10:07:46;;;;;;;15.82;10.85;;;30.30;94.50;;;;;;5072024;28;20350;-77
2023/06/21 10:10:12;;;;;;;14.90;11.35;;;30.40;95.10;;;;;;5075175;28;20032;-77
2023/06/21 10:12:56;;;;;;;16.33;10.93;;;30.80;94.50;;;;;;5076774;28;20039;-77
2023/06/21 10:15:22;;;;;;;16.15;9.93;;;31.10;93.90;;;;;;5076282;28;20039;-77
2023/06/21 10:17:48;;;;;;;14.82;10.07;;;30.60;93.80;;;;;;5080708;28;20023;-77
2023/06/21 10:20:14;;;;;;;14.48;10.80;;;30.10;94.70;;;;;;5072341;28;20024;-77
2023/06/21 10:22:51;;;;;;;14.88;10.43;;;30.30;94.30;;;;;;5073490;28;20024;-77
2023/06/21 10:25:20;;;;;;;16.08;9.32;;;30.50;94.70;;;;;;5075054;28;20032;-76
2023/06/21 10:27:47;;;;;;;15.02;10.60;;;30.50;93.80;;;;;;5079086;28;20111;-77
2023/06/21 10:30:19;;;;;;;11.80;9.02;;;30.50;93.70;;;;;;5073949;28;20031;-78
2023/06/21 10:32:47;;;;;;;15.93;10.10;;;30.60;93.40;;;;;;5078988;28;20066;-78
2023/06/21 10:35:16;;;;;;;17.90;9.10;;;30.90;93.70;;;;;;5074809;28;20035;-78
2023/06/21 10:37:48;;;;;;;14.55;9.65;;;31.20;93.00;;;;;;5074935;28;20043;-77
2023/06/21 10:40:15;;;;;;;17.35;8.90;;;31.30;92.30;;;;;;5074600;28;20106;-77
2023/06/21 10:42:41;;;;;;;15.85;9.02;;;31.20;92.60;;;;;;5084314;28;20039;-77
2023/06/21 10:45:09;;;;;;;12.93;8.30;;;31.20;93.30;;;;;;5082217;28;20056;-77
2023/06/21 10:47:37;;;;;;;12.80;9.32;;;31.10;92.60;;;;;;5080787;28;20025;-77
2023/06/21 10:50:03;;;;;;;15.27;9.77;;;30.90;91.90;;;;;;5076257;28;20036;-78
2023/06/21 10:52:30;;;;;;;11.80;8.85;;;30.70;91.60;;;;;;5074214;28;20032;-77
2023/06/21 10:55:00;;;;;;;17.88;9.85;;;30.80;91.50;;;;;;5084571;28;20029;-77
2023/06/21 10:57:28;;;;;;;14.63;9.65;;;30.60;91.70;;;;;;5072691;28;20140;-77
2023/06/21 11:00:02;;;;;;;12.95;8.90;;;30.70;91.80;;;;;;5078643;28;20043;-78
2023/06/21 11:02:28;;;;;;;10.35;8.88;;;31.10;92.50;;;;;;5078392;28;20066;-77
2023/06/21 11:05:17;;;;;;;13.77;9.40;;;30.90;91.70;;;;;;5097488;28;20389;-78
2023/06/21 11:08:00;;;;;;;18.02;8.57;;;31.00;92.30;;;;;;5075260;28;20390;-78
2023/06/21 11:10:43;;;;;;;13.25;8.02;;;31.10;91.60;;;;;;5083718;28;20040;-78
2023/06/21 11:13:10;;;;;;;;;;;31.50;92.10;;;;;;5085034;28;20024;-78
2023/06/21 11:15:40;;;;;;;13.20;7.65;;;31.50;92.10;;;;;;5079923;28;20014;-78
2023/06/21 11:18:07;;;;;;;9.25;7.20;;;31.30;92.40;;;;;;5076927;28;20027;-77
2023/06/21 11:20:47;;;;;;;12.10;7.53;;;31.70;92.30;;;;;;5074249;28;20059;-77
2023/06/21 11:23:22;;;;;;;10.57;6.40;;;32.00;92.40;;;;;;5082338;28;20814;-76
2023/06/21 11:26:03;;;;;;;13.70;7.32;;;31.60;90.60;;;;;;5074223;28;20032;-78
2023/06/21 11:28:35;;;;;;;13.68;7.85;;;31.60;91.20;;;;;;5076287;28;20024;-77
2023/06/21 11:31:01;;;;;;;17.70;7.28;;;31.80;91.60;;;;;;5072574;28;20494;-77
2023/06/21 11:33:29;;;;;;;11.98;6.82;;;31.50;91.00;;;;;;5077247;28;20030;-78
2023/06/21 11:36:05;;;;;;;13.57;7.07;;;32.00;91.20;;;;;;5073435;28;20025;-77
2023/06/21 11:38:33;;;;;;;14.82;6.43;;;32.00;90.40;;;;;;5072832;28;20309;-77
2023/06/21 11:40:59;;;;;;;13.32;6.95;;;32.00;91.30;;;;;;5071470;28;20028;-78
2023/06/21 11:43:26;;;;;;;13.32;6.25;;;32.10;91.10;;;;;;5074843;28;20074;-77
2023/06/21 11:46:01;;;;;;;25.23;7.88;;;32.20;91.10;;;;;;5073479;28;20039;-77
2023/06/21 11:48:28;;;;;;;13.15;5.90;;;31.90;90.90;;;;;;5072279;28;20040;-77
2023/06/21 11:50:56;;;;;;;15.77;6.28;;;32.10;90.00;;;;;;5075217;28;20724;-77
2023/06/21 11:53:24;;;;;;;10.20;5.43;;;32.50;90.70;;;;;;5070935;28;20024;-78
2023/06/21 11:55:55;;;;;;;24.15;7.50;;;32.70;89.20;;;;;;5064318;28;20726;-78
2023/06/21 11:58:22;;;;;;;15.48;6.05;;;32.60;88.80;;;;;;5083170;28;20147;-77
2023/06/21 12:00:48;;;;;;;16.00;6.88;;;32.50;88.50;;;;;;5082297;28;20028;-78
2023/06/21 12:03:14;;;;;;;12.40;6.32;;;32.50;88.00;;;;;;5078524;28;20067;-79
2023/06/21 12:05:54;;;;;;;10.90;6.25;;;32.60;89.20;;;;;;5071890;28;20106;-78
2023/06/21 12:08:26;;;;;;;12.45;6.72;;;32.60;88.00;;;;;;5074160;28;20996;-77
2023/06/21 12:10:52;;;;;;;12.43;5.97;;;32.60;87.80;;;;;;5069934;28;20180;-76
2023/06/21 12:13:19;;;;;;;14.38;6.38;;;32.60;90.30;;;;;;5064242;28;20056;-76
2023/06/21 12:15:53;;;;;;;13.75;7.03;;;33.10;90.10;;;;;;5066102;28;20024;-74
2023/06/21 12:18:19;;;;;;;;;;;33.00;89.50;;;;;;5063965;28;20440;-76
2023/06/21 12:20:45;;;;;;;12.88;6.15;;;33.00;90.10;;;;;;5068807;28;19963;-76
2023/06/21 12:23:11;;;;;;;13.32;6.47;;;33.00;89.30;;;;;;5068559;28;20056;-76
2023/06/21 12:25:51;;;;;;;16.88;6.70;;;33.40;90.90;;;;;;5066266;28;20110;-77
2023/06/21 12:28:19;;;;;;;12.57;6.10;;;33.50;89.50;;;;;;5063386;28;20028;-75
2023/06/21 12:31:00;;;;;;;20.00;6.63;;;33.40;86.00;;;;;;5069208;28;20032;-75
2023/06/21 12:33:27;;;;;;;15.23;6.85;;;33.70;85.40;;;;;;5072481;28;20024;-74
2023/06/21 12:36:09;;;;;;;13.60;6.20;;;33.80;87.50;;;;;;5069499;28;20681;-75
2023/06/21 12:38:35;;;;;;;16.75;6.75;;;33.50;87.80;;;;;;5073610;28;20036;-74